Time;durP1;ratioP1;P1;durP2;ratioP2;P2;SDS_P1;SDS_P2;PMS_P1;PMS_P2;Temp;Humidity;BMP_temperature;BMP_pressure;BME280_temperature;BME280_humidity;BME280_pressure;Samples;Min_cycle;Max_cycle;Signal;HPM_P1;HPM_P2
2021/03/07 00:02:24;;;;;;;7.73;4.87;;;-2.30;99.90;;;;;;5014329;28;20189;-72
2021/03/07 00:04:51;;;;;;;8.47;5.60;;;-2.40;99.90;;;;;;5006781;28;20199;-73
2021/03/07 00:07:16;;;;;;;12.70;6.90;;;-2.50;99.90;;;;;;5015621;28;20245;-72
2021/03/07 00:09:42;;;;;;;7.77;5.93;;;-2.50;99.90;;;;;;5022701;28;20850;-73
2021/03/07 00:12:08;;;;;;;10.00;6.47;;;-2.50;99.90;;;;;;5019703;28;20195;-72
2021/03/07 00:14:33;;;;;;;9.27;6.37;;;-2.50;99.90;;;;;;5017904;28;20291;-71
2021/03/07 00:16:59;;;;;;;10.47;6.57;;;-2.60;99.90;;;;;;5020773;28;20413;-72
2021/03/07 00:19:24;;;;;;;7.90;6.03;;;-2.60;99.90;;;;;;5020253;28;20268;-74
2021/03/07 00:21:50;;;;;;;10.30;5.20;;;-2.60;99.90;;;;;;5022324;28;20273;-73
2021/03/07 00:24:15;;;;;;;7.77;5.50;;;-2.60;99.90;;;;;;5018826;28;20288;-72
2021/03/07 00:26:41;;;;;;;11.37;6.20;;;-2.60;99.90;;;;;;5020970;28;20167;-73
2021/03/07 00:29:06;;;;;;;8.80;5.93;;;-2.70;99.90;;;;;;5019675;28;20186;-72
2021/03/07 00:31:32;;;;;;;10.63;7.07;;;-2.60;99.90;;;;;;5020649;28;20194;-72
2021/03/07 00:33:57;;;;;;;13.60;6.30;;;-2.70;99.90;;;;;;5019186;28;20183;-73
2021/03/07 00:36:23;;;;;;;12.73;5.90;;;-2.70;99.90;;;;;;5019134;28;20188;-72
2021/03/07 00:38:48;;;;;;;10.07;5.80;;;-2.70;99.90;;;;;;5018647;28;20189;-72
2021/03/07 00:41:14;;;;;;;10.00;6.43;;;-2.70;99.90;;;;;;5017777;28;20662;-72
2021/03/07 00:43:39;;;;;;;9.07;6.23;;;-2.70;99.90;;;;;;5011508;28;20270;-73
2021/03/07 00:46:07;;;;;;;11.13;6.80;;;-2.80;99.90;;;;;;5018565;28;20283;-72
2021/03/07 00:48:33;;;;;;;8.77;5.30;;;-2.80;99.90;;;;;;5016682;28;20188;-73
2021/03/07 00:50:59;;;;;;;9.60;5.90;;;-2.80;99.90;;;;;;5020479;28;20425;-73
2021/03/07 00:53:25;;;;;;;10.83;6.37;;;-2.90;99.90;;;;;;5019227;28;20424;-73
2021/03/07 00:55:50;;;;;;;8.80;5.33;;;-2.90;99.90;;;;;;5013507;28;20588;-74
2021/03/07 00:58:16;;;;;;;8.63;5.23;;;-2.90;99.90;;;;;;5017116;28;20420;-73
2021/03/07 01:00:45;;;;;;;8.70;6.03;;;-2.90;99.90;;;;;;5026320;28;20264;-73
2021/03/07 01:03:12;;;;;;;9.17;5.40;;;-2.90;99.90;;;;;;5020430;28;20235;-73
2021/03/07 01:05:38;;;;;;;9.03;5.83;;;-3.00;99.90;;;;;;5025169;28;20851;-73
2021/03/07 01:08:04;;;;;;;7.27;5.97;;;-2.90;99.90;;;;;;5024129;28;20493;-74
2021/03/07 01:10:34;;;;;;;12.03;4.60;;;-3.00;99.90;;;;;;5024018;28;20243;-73
2021/03/07 01:13:00;;;;;;;10.30;5.90;;;-3.00;99.90;;;;;;5024626;28;20205;-75
2021/03/07 01:15:29;;;;;;;12.40;5.97;;;-3.00;99.90;;;;;;5023190;28;20430;-73
2021/03/07 01:17:55;;;;;;;8.77;6.10;;;-3.10;99.90;;;;;;5025960;28;20216;-74
2021/03/07 01:20:21;;;;;;;10.53;6.00;;;-3.10;99.90;;;;;;5026242;28;20538;-73
2021/03/07 01:22:47;;;;;;;8.53;5.23;;;-3.10;99.90;;;;;;5018358;28;20839;-73
2021/03/07 01:25:14;;;;;;;7.63;5.87;;;-3.10;99.90;;;;;;5025386;28;20973;-73
2021/03/07 01:27:39;;;;;;;13.30;6.07;;;-3.10;99.90;;;;;;5023247;28;20958;-73
2021/03/07 01:30:07;;;;;;;7.07;5.17;;;-3.00;99.90;;;;;;5019142;28;20410;-73
2021/03/07 01:32:32;;;;;;;9.27;5.73;;;-3.10;99.90;;;;;;5022397;28;20322;-73
2021/03/07 01:34:58;;;;;;;7.07;5.10;;;-3.00;99.90;;;;;;5024603;28;20506;-72
2021/03/07 01:37:23;;;;;;;10.87;5.60;;;-3.10;99.90;;;;;;5022416;28;20191;-73
2021/03/07 01:39:49;;;;;;;9.13;5.57;;;-3.10;99.90;;;;;;5025809;28;20322;-72
2021/03/07 01:42:14;;;;;;;11.30;6.13;;;-3.10;99.90;;;;;;5018630;28;20190;-72
2021/03/07 01:44:40;;;;;;;13.47;6.00;;;-3.20;99.90;;;;;;5024800;28;20283;-73
2021/03/07 01:47:06;;;;;;;12.03;5.20;;;-3.20;99.90;;;;;;5023262;28;20186;-74
2021/03/07 01:49:31;;;;;;;11.00;5.70;;;-3.20;99.90;;;;;;5023506;28;20202;-72
2021/03/07 01:51:57;;;;;;;9.10;5.20;;;-3.20;99.90;;;;;;5024885;28;20203;-75
2021/03/07 01:54:23;;;;;;;7.23;5.97;;;-3.30;99.90;;;;;;5021739;28;20206;-72
2021/03/07 01:56:52;;;;;;;7.30;5.50;;;-3.30;99.90;;;;;;5025540;28;20724;-71
2021/03/07 01:59:20;;;;;;;9.40;5.83;;;-3.30;99.90;;;;;;5017762;28;21041;-72
2021/03/07 02:01:48;;;;;;;11.77;5.30;;;-3.40;99.90;;;;;;5017338;28;20461;-73
2021/03/07 02:04:14;;;;;;;6.83;5.00;;;-3.40;99.90;;;;;;5021676;28;20509;-73
2021/03/07 02:06:40;;;;;;;9.23;5.93;;;-3.40;99.90;;;;;;5020851;28;20438;-73
2021/03/07 02:09:06;;;;;;;8.20;6.10;;;-3.40;99.90;;;;;;5022643;28;20467;-73
2021/03/07 02:11:33;;;;;;;8.70;5.93;;;-3.40;99.90;;;;;;5023122;28;20199;-73
2021/03/07 02:14:00;;;;;;;8.47;5.63;;;-3.50;99.90;;;;;;5023459;28;20410;-73
2021/03/07 02:16:27;;;;;;;8.47;5.73;;;-3.50;99.90;;;;;;5021676;28;20934;-73
2021/03/07 02:18:53;;;;;;;8.60;5.53;;;-3.50;99.90;;;;;;5021611;28;20600;-73
2021/03/07 02:21:34;;;;;;;9.00;5.40;;;-3.50;99.90;;;;;;5021542;28;20422;-73
2021/03/07 02:24:06;;;;;;;8.87;5.73;;;-3.50;99.90;;;;;;5020088;28;20466;-74
2021/03/07 02:26:39;;;;;;;13.87;6.73;;;-3.50;99.90;;;;;;5023339;28;20405;-73
2021/03/07 02:29:07;;;;;;;9.97;5.50;;;-3.50;99.90;;;;;;5022056;28;20893;-73
2021/03/07 02:31:37;;;;;;;7.97;5.37;;;-3.60;99.90;;;;;;5022770;28;20477;-72
2021/03/07 02:34:17;;;;;;;11.10;7.07;;;-3.60;99.90;;;;;;5022662;28;20431;-73
2021/03/07 02:36:48;;;;;;;8.90;5.30;;;-3.70;99.90;;;;;;5024210;28;20401;-73
2021/03/07 02:39:17;;;;;;;10.27;6.40;;;-3.70;99.90;;;;;;5020294;28;20846;-74
2021/03/07 02:41:43;;;;;;;11.20;7.00;;;-3.70;99.90;;;;;;5023397;28;20421;-73
2021/03/07 02:44:13;;;;;;;7.93;6.53;;;-3.80;99.90;;;;;;5021651;28;20945;-75
2021/03/07 02:46:41;;;;;;;10.43;5.20;;;-3.80;99.90;;;;;;5023437;28;20799;-72
2021/03/07 02:49:12;;;;;;;11.47;6.70;;;-3.80;99.90;;;;;;5021934;28;20463;-73
2021/03/07 02:51:38;;;;;;;11.53;6.87;;;-3.80;99.90;;;;;;5019427;28;20406;-75
2021/03/07 02:54:09;;;;;;;10.23;6.90;;;-3.80;99.90;;;;;;5022173;28;20416;-74
2021/03/07 02:56:36;;;;;;;10.00;6.37;;;-3.80;99.90;;;;;;5023030;28;20412;-72
2021/03/07 02:59:08;;;;;;;9.30;6.03;;;-3.90;99.90;;;;;;5022459;28;20920;-74
2021/03/07 03:01:35;;;;;;;14.97;6.30;;;-3.90;99.90;;;;;;5022931;28;20774;-72
2021/03/07 03:04:02;;;;;;;8.70;5.53;;;-3.90;99.90;;;;;;5022706;28;20412;-73
2021/03/07 03:06:28;;;;;;;12.70;6.40;;;-3.90;99.90;;;;;;5021927;28;20425;-73
2021/03/07 03:08:57;;;;;;;9.50;5.70;;;-4.00;99.90;;;;;;5023837;28;20422;-72
2021/03/07 03:11:41;;;;;;;9.20;6.30;;;-3.90;99.90;;;;;;5021520;28;20432;-74
2021/03/07 03:14:14;;;;;;;7.60;6.27;;;-3.90;99.90;;;;;;5024208;28;20774;-72
2021/03/07 03:16:44;;;;;;;10.50;5.80;;;-4.00;99.90;;;;;;5021667;28;20460;-74
2021/03/07 03:19:11;;;;;;;8.43;6.40;;;-4.00;99.90;;;;;;5020197;28;20504;-73
2021/03/07 03:21:38;;;;;;;10.70;6.23;;;-4.00;99.90;;;;;;5023251;28;20794;-73
2021/03/07 03:24:06;;;;;;;11.47;6.57;;;-4.00;99.90;;;;;;5022182;28;20400;-73
2021/03/07 03:26:32;;;;;;;8.63;6.10;;;-4.00;99.90;;;;;;5023272;28;20407;-75
2021/03/07 03:28:58;;;;;;;12.80;7.33;;;-4.00;99.90;;;;;;5021606;28;20428;-75
2021/03/07 03:31:24;;;;;;;9.80;5.60;;;-4.10;99.90;;;;;;5023987;28;20411;-74
2021/03/07 03:33:50;;;;;;;11.60;6.90;;;-4.10;99.90;;;;;;5020186;28;20392;-72
2021/03/07 03:36:16;;;;;;;9.17;6.00;;;-4.10;99.90;;;;;;5023144;28;20240;-72
2021/03/07 03:38:50;;;;;;;11.30;6.70;;;-4.10;99.90;;;;;;5020602;28;20190;-73
2021/03/07 03:41:19;;;;;;;14.80;6.30;;;-4.10;99.90;;;;;;5021423;28;20603;-72
2021/03/07 03:43:47;;;;;;;9.43;6.73;;;-4.20;99.90;;;;;;5017328;28;20420;-72
2021/03/07 03:46:14;;;;;;;14.63;6.10;;;-4.10;99.90;;;;;;5017519;28;20465;-73
2021/03/07 03:48:42;;;;;;;9.70;6.17;;;-4.10;99.90;;;;;;5020745;28;20421;-73
2021/03/07 03:51:10;;;;;;;10.23;7.00;;;-4.10;99.90;;;;;;5018770;28;20991;-72
2021/03/07 03:53:37;;;;;;;11.83;6.83;;;-4.20;99.90;;;;;;5019019;28;20411;-74
2021/03/07 03:56:04;;;;;;;8.80;6.40;;;-4.20;99.90;;;;;;5017733;28;20446;-73
2021/03/07 03:58:32;;;;;;;9.10;6.27;;;-4.20;99.90;;;;;;5019532;28;20968;-73
2021/03/07 04:00:59;;;;;;;12.00;6.80;;;-4.20;99.90;;;;;;5020603;28;20436;-74
2021/03/07 04:03:25;;;;;;;10.23;6.30;;;-4.20;99.90;;;;;;5016616;28;20942;-73
2021/03/07 04:05:52;;;;;;;10.33;5.87;;;-4.20;99.90;;;;;;5023169;28;20440;-73
2021/03/07 04:08:20;;;;;;;7.93;5.60;;;-4.20;99.90;;;;;;5013559;28;20412;-72
2021/03/07 04:10:46;;;;;;;11.83;6.80;;;-4.20;99.90;;;;;;5020324;28;20510;-73
2021/03/07 04:13:17;;;;;;;7.83;6.30;;;-4.30;99.90;;;;;;5017484;28;20851;-72
2021/03/07 04:15:43;;;;;;;10.93;5.93;;;-4.30;99.90;;;;;;5016875;28;21024;-72
2021/03/07 04:18:13;;;;;;;9.97;6.10;;;-4.30;99.90;;;;;;5016258;28;21031;-72
2021/03/07 04:20:39;;;;;;;12.47;7.00;;;-4.30;99.90;;;;;;5021744;28;20469;-72
2021/03/07 04:23:04;;;;;;;11.90;6.60;;;-4.30;99.90;;;;;;5019313;28;20504;-72
2021/03/07 04:25:30;;;;;;;8.53;5.83;;;-4.30;99.90;;;;;;5016773;28;20853;-70
2021/03/07 04:27:56;;;;;;;9.30;7.63;;;-4.30;99.90;;;;;;5014318;28;20618;-71
2021/03/07 04:30:22;;;;;;;8.67;5.83;;;-4.30;99.90;;;;;;5013132;28;20956;-72
2021/03/07 04:32:49;;;;;;;9.73;6.27;;;-4.30;99.90;;;;;;5016657;28;20188;-72
2021/03/07 04:35:16;;;;;;;12.20;6.17;;;-4.30;99.90;;;;;;5013921;28;20522;-72
2021/03/07 04:37:42;;;;;;;16.07;6.20;;;-4.30;99.90;;;;;;5021770;28;20441;-72
2021/03/07 04:40:09;;;;;;;9.53;6.53;;;-4.30;99.90;;;;;;5016904;28;20523;-72
2021/03/07 04:42:34;;;;;;;7.70;5.57;;;-4.30;99.90;;;;;;5020690;28;20175;-72
2021/03/07 04:45:01;;;;;;;10.60;6.37;;;-4.40;99.90;;;;;;5017639;28;20503;-73
2021/03/07 04:47:27;;;;;;;10.00;5.93;;;-4.40;99.90;;;;;;5017093;28;20446;-71
2021/03/07 04:49:52;;;;;;;7.07;5.10;;;-4.40;99.90;;;;;;5021222;28;20407;-72
2021/03/07 04:52:18;;;;;;;16.60;7.10;;;-4.40;99.90;;;;;;5017175;28;20197;-72
2021/03/07 04:54:43;;;;;;;9.87;6.00;;;-4.30;99.90;;;;;;5022117;28;20584;-73
2021/03/07 04:57:09;;;;;;;6.60;5.10;;;-4.40;99.90;;;;;;5014816;28;20538;-73
2021/03/07 04:59:34;;;;;;;5.10;4.60;;;-4.40;99.90;;;;;;5021220;28;20273;-73
2021/03/07 05:02:00;;;;;;;8.83;6.20;;;-4.30;99.90;;;;;;5018021;28;20178;-73
2021/03/07 05:04:25;;;;;;;11.53;6.33;;;-4.40;99.90;;;;;;5019675;28;20207;-73
2021/03/07 05:06:52;;;;;;;11.13;7.20;;;-4.40;99.90;;;;;;5016689;28;20187;-71
2021/03/07 05:09:17;;;;;;;9.47;5.70;;;-4.40;99.90;;;;;;5018635;28;20600;-72
2021/03/07 05:11:44;;;;;;;10.00;5.93;;;-4.30;99.90;;;;;;5011533;28;20515;-72
2021/03/07 05:14:09;;;;;;;8.03;5.83;;;-4.30;99.90;;;;;;5020904;28;20217;-72
2021/03/07 05:16:35;;;;;;;7.60;5.07;;;-4.30;99.90;;;;;;5020108;28;20425;-72
2021/03/07 05:19:02;;;;;;;9.20;4.93;;;-4.30;99.90;;;;;;5015386;28;20646;-72
2021/03/07 05:21:28;;;;;;;11.03;6.60;;;-4.30;99.90;;;;;;5019664;28;20652;-72
2021/03/07 05:23:56;;;;;;;11.27;6.37;;;-4.30;99.90;;;;;;5015986;28;20473;-73
2021/03/07 05:26:22;;;;;;;10.90;7.00;;;-4.30;99.90;;;;;;5016179;28;20274;-72
2021/03/07 05:28:48;;;;;;;9.00;6.30;;;-4.30;99.90;;;;;;5013513;28;20982;-74
2021/03/07 05:31:14;;;;;;;11.67;6.70;;;-4.30;99.90;;;;;;5023210;28;20195;-74
2021/03/07 05:33:39;;;;;;;19.53;6.70;;;-4.30;99.90;;;;;;5017344;28;20445;-72
2021/03/07 05:36:05;;;;;;;11.30;6.53;;;-4.30;99.90;;;;;;5020285;28;20425;-71
2021/03/07 05:38:31;;;;;;;13.13;7.00;;;-4.30;99.90;;;;;;5016708;28;20195;-71
2021/03/07 05:40:57;;;;;;;10.50;6.33;;;-4.30;99.90;;;;;;5019791;28;20534;-72
2021/03/07 05:43:23;;;;;;;6.40;5.37;;;-4.30;99.90;;;;;;5019697;28;20218;-72
2021/03/07 05:45:49;;;;;;;7.80;6.20;;;-4.30;99.90;;;;;;5020370;28;20419;-73
2021/03/07 05:48:15;;;;;;;16.83;7.03;;;-4.30;99.90;;;;;;5021939;28;20462;-71
2021/03/07 05:50:40;;;;;;;8.07;5.40;;;-4.30;99.90;;;;;;5019511;28;20195;-71
2021/03/07 05:53:07;;;;;;;12.40;6.90;;;-4.20;99.90;;;;;;5023440;28;20186;-71
2021/03/07 05:55:33;;;;;;;11.37;6.53;;;-4.20;99.90;;;;;;5017254;28;20225;-73
2021/03/07 05:58:00;;;;;;;14.23;7.50;;;-4.20;99.90;;;;;;5023964;28;20437;-73
2021/03/07 06:00:26;;;;;;;15.40;6.33;;;-4.20;99.90;;;;;;5021494;28;20500;-70
2021/03/07 06:02:52;;;;;;;9.00;6.23;;;-4.10;99.90;;;;;;5020351;28;20448;-70
2021/03/07 06:05:18;;;;;;;12.53;6.53;;;-4.00;99.90;;;;;;5015525;28;20442;-70
2021/03/07 06:07:46;;;;;;;10.03;6.37;;;-3.90;99.90;;;;;;5022259;28;20454;-70
2021/03/07 06:10:21;;;;;;;8.77;5.87;;;-3.90;99.90;;;;;;5020001;28;20181;-71
2021/03/07 06:12:57;;;;;;;9.20;6.47;;;-3.90;99.90;;;;;;5020947;28;20416;-71
2021/03/07 06:15:23;;;;;;;11.03;6.80;;;-3.70;99.90;;;;;;5017022;28;20482;-69
2021/03/07 06:17:48;;;;;;;11.40;7.33;;;-3.40;99.90;;;;;;5022871;28;20480;-71
2021/03/07 06:20:16;;;;;;;9.60;6.03;;;-2.90;99.90;;;;;;5021900;28;20208;-70
2021/03/07 06:22:51;;;;;;;13.70;6.30;;;-2.40;99.90;;;;;;5019842;28;20202;-70
2021/03/07 06:25:17;;;;;;;7.53;5.60;;;-1.70;99.90;;;;;;5020458;28;20451;-71
2021/03/07 06:27:43;;;;;;;9.97;5.80;;;-1.20;99.90;;;;;;5019740;28;20448;-70
2021/03/07 06:30:09;;;;;;;10.10;5.97;;;-0.80;99.90;;;;;;5020508;28;20717;-70
2021/03/07 06:32:37;;;;;;;9.90;5.53;;;-0.70;99.90;;;;;;5019525;28;20201;-70
2021/03/07 06:35:05;;;;;;;6.27;5.27;;;-0.70;99.90;;;;;;5032358;28;20458;-70
2021/03/07 06:37:31;;;;;;;6.37;5.23;;;-0.60;99.90;;;;;;5019009;28;20541;-70
2021/03/07 06:39:57;;;;;;;6.87;6.10;;;-0.50;99.90;;;;;;5029032;28;20903;-71
2021/03/07 06:42:23;;;;;;;7.47;5.53;;;0.00;99.90;;;;;;5014742;28;20274;-71
2021/03/07 06:44:55;;;;;;;10.90;7.40;;;0.70;99.90;;;;;;5018973;28;20218;-71
2021/03/07 06:47:21;;;;;;;9.33;6.50;;;1.50;99.90;;;;;;5023900;28;20432;-69
2021/03/07 06:49:47;;;;;;;9.40;6.83;;;2.00;99.90;;;;;;5019514;28;20478;-71
2021/03/07 06:52:20;;;;;;;9.53;6.90;;;2.60;99.90;;;;;;5021081;28;20221;-70
2021/03/07 06:55:12;;;;;;;13.87;7.80;;;3.60;99.90;;;;;;5017359;28;20243;-70
2021/03/07 06:57:38;;;;;;;10.00;6.53;;;4.90;99.90;;;;;;5018954;28;20439;-71
2021/03/07 07:00:05;;;;;;;7.90;6.90;;;6.00;99.90;;;;;;5019181;28;20483;-71
2021/03/07 07:02:31;;;;;;;12.20;6.97;;;6.60;99.90;;;;;;5020259;28;20191;-70
2021/03/07 07:04:56;;;;;;;13.37;7.53;;;7.10;99.90;;;;;;5021152;28;20833;-69
2021/03/07 07:07:23;;;;;;;11.60;7.90;;;8.00;99.90;;;;;;5019350;28;20218;-71
2021/03/07 07:09:57;;;;;;;12.27;9.57;;;8.40;99.90;;;;;;5018064;28;20182;-72
2021/03/07 07:12:28;;;;;;;9.43;7.50;;;9.40;99.90;;;;;;5011775;28;20949;-70
2021/03/07 07:15:08;;;;;;;11.87;9.30;;;9.60;99.90;;;;;;5018989;28;20866;-72
2021/03/07 07:17:33;;;;;;;11.73;9.47;;;9.70;99.90;;;;;;5010783;28;20457;-71
2021/03/07 07:19:59;;;;;;;10.50;8.63;;;9.80;99.90;;;;;;5018020;28;20599;-72
2021/03/07 07:22:25;;;;;;;11.13;8.27;;;10.10;99.90;;;;;;5020513;28;20280;-72
2021/03/07 07:24:51;;;;;;;11.50;9.07;;;10.00;99.90;;;;;;5021083;28;20202;-72
2021/03/07 07:27:17;;;;;;;8.50;7.63;;;10.30;99.90;;;;;;5015343;28;20568;-72
2021/03/07 07:29:42;;;;;;;11.30;7.73;;;10.70;99.90;;;;;;5022840;28;20436;-71
2021/03/07 07:32:43;;;;;;;9.80;8.33;;;11.10;99.10;;;;;;5019209;28;20198;-72
2021/03/07 07:35:19;;;;;;;9.27;8.37;;;11.80;98.40;;;;;;5020917;28;20780;-70
2021/03/07 07:37:59;;;;;;;10.30;9.10;;;12.20;97.80;;;;;;5016936;28;20444;-71
2021/03/07 07:40:42;;;;;;;12.73;8.67;;;12.10;97.30;;;;;;5015088;28;20584;-71
2021/03/07 07:43:09;;;;;;;10.67;8.30;;;11.60;97.60;;;;;;5016165;28;20444;-73
2021/03/07 07:45:35;;;;;;;11.67;9.20;;;11.50;96.40;;;;;;5019859;28;20437;-71
2021/03/07 07:48:01;;;;;;;8.63;7.77;;;10.50;97.40;;;;;;5010216;28;20954;-71
2021/03/07 07:50:29;;;;;;;10.90;8.13;;;10.10;97.70;;;;;;5014367;28;20442;-72
2021/03/07 07:52:59;;;;;;;14.13;9.83;;;9.40;97.90;;;;;;5011373;28;20443;-71
2021/03/07 07:55:44;;;;;;;12.60;8.90;;;8.90;98.50;;;;;;5017689;28;20472;-72
2021/03/07 07:58:36;;;;;;;13.23;11.10;;;8.40;99.50;;;;;;5010278;28;20548;-71
2021/03/07 08:01:04;;;;;;;41.60;24.50;;;8.10;99.60;;;;;;5014239;28;20462;-71
2021/03/07 08:03:31;;;;;;;384.73;129.27;;;7.90;99.90;;;;;;5014150;28;20453;-71
2021/03/07 08:05:56;;;;;;;15.50;11.63;;;7.70;99.90;;;;;;5015828;28;20457;-70
2021/03/07 08:08:51;;;;;;;11.63;8.77;;;7.70;99.90;;;;;;5009249;28;20451;-72
2021/03/07 08:11:23;;;;;;;40.70;27.80;;;7.80;99.90;;;;;;5003452;28;20439;-71
2021/03/07 08:13:52;;;;;;;54.13;30.07;;;8.00;99.90;;;;;;5013458;28;20469;-70
2021/03/07 08:16:37;;;;;;;16.90;10.30;;;8.20;99.90;;;;;;5020275;28;20470;-71
2021/03/07 08:19:04;;;;;;;21.83;10.90;;;8.40;99.90;;;;;;5013010;28;20439;-70
2021/03/07 08:21:59;;;;;;;11.30;8.87;;;8.50;99.90;;;;;;5021909;28;20993;-71
2021/03/07 08:24:55;;;;;;;14.90;11.00;;;8.40;99.60;;;;;;5006320;28;21027;-71
2021/03/07 08:27:32;;;;;;;9.60;7.83;;;8.50;99.90;;;;;;5007212;28;20515;-70
2021/03/07 08:29:58;;;;;;;11.97;8.03;;;8.70;99.90;;;;;;5009416;28;21039;-69
2021/03/07 08:32:33;;;;;;;20.40;13.23;;;8.40;99.80;;;;;;5005033;28;20524;-71
2021/03/07 08:35:20;;;;;;;91.07;27.83;;;8.50;99.70;;;;;;5006751;28;20234;-70
2021/03/07 08:38:15;;;;;;;34.90;16.07;;;8.40;99.90;;;;;;5018599;28;20928;-71
2021/03/07 08:40:42;;;;;;;17.90;11.70;;;8.90;99.90;;;;;;5010574;28;20968;-71
2021/03/07 08:43:23;;;;;;;9.50;8.40;;;9.20;99.90;;;;;;5018904;28;20428;-71
2021/03/07 08:46:24;;;;;;;65.73;27.40;;;9.40;99.80;;;;;;5015668;28;20899;-71
2021/03/07 08:49:15;;;;;;;16.13;12.03;;;9.60;99.80;;;;;;5007586;28;20473;-71
2021/03/07 08:51:56;;;;;;;9.53;8.47;;;9.80;99.20;;;;;;5006839;28;20854;-71
2021/03/07 08:54:22;;;;;;;13.37;9.17;;;9.70;99.50;;;;;;5022127;28;20817;-71
2021/03/07 08:56:52;;;;;;;14.00;9.63;;;9.80;99.40;;;;;;5009845;28;20415;-71
2021/03/07 08:59:23;;;;;;;13.60;10.53;;;9.80;99.60;;;;;;5012581;28;20581;-71
2021/03/07 09:01:49;;;;;;;11.20;8.80;;;10.20;98.20;;;;;;5006783;28;20447;-69
2021/03/07 09:04:15;;;;;;;19.80;11.23;;;10.30;97.60;;;;;;5014104;28;20429;-70
2021/03/07 09:06:45;;;;;;;11.40;9.37;;;10.40;97.60;;;;;;5016085;28;20444;-70
2021/03/07 09:09:17;;;;;;;11.00;9.30;;;10.50;98.70;;;;;;5018433;28;20245;-70
2021/03/07 09:12:04;;;;;;;9.50;8.50;;;10.80;97.40;;;;;;5011644;28;20506;-71
2021/03/07 09:14:38;;;;;;;11.00;8.93;;;10.90;97.30;;;;;;5012344;28;20515;-69
2021/03/07 09:17:09;;;;;;;11.47;9.33;;;11.20;97.70;;;;;;5014439;28;20445;-70
2021/03/07 09:19:38;;;;;;;10.63;8.60;;;11.00;97.10;;;;;;5023592;28;20481;-70
2021/03/07 09:22:24;;;;;;;11.67;9.07;;;11.20;96.50;;;;;;5018556;28;20447;-70
2021/03/07 09:25:06;;;;;;;14.00;10.30;;;11.40;96.10;;;;;;5015687;28;20510;-70
2021/03/07 09:27:35;;;;;;;15.30;11.53;;;11.60;96.80;;;;;;5012015;28;20445;-69
2021/03/07 09:30:08;;;;;;;11.53;10.03;;;11.40;96.20;;;;;;5021592;28;20423;-71
2021/03/07 09:32:38;;;;;;;10.63;9.53;;;11.20;96.70;;;;;;5019025;28;20440;-70
2021/03/07 09:35:30;;;;;;;11.70;9.10;;;10.70;96.80;;;;;;5017213;28;20553;-70
2021/03/07 09:38:05;;;;;;;14.83;9.63;;;10.40;96.80;;;;;;5018988;28;20426;-69
2021/03/07 09:40:36;;;;;;;13.60;9.67;;;9.80;97.40;;;;;;5019947;28;20891;-71
2021/03/07 09:43:10;;;;;;;12.27;10.17;;;9.30;99.40;;;;;;5020044;28;20440;-72
2021/03/07 09:45:46;;;;;;;11.60;9.10;;;9.60;99.90;;;;;;5012502;28;20467;-71
2021/03/07 09:48:12;;;;;;;10.20;8.70;;;10.00;98.30;;;;;;5021020;28;20416;-70
2021/03/07 09:50:40;;;;;;;14.33;9.40;;;10.10;98.70;;;;;;5017836;28;20579;-71
2021/03/07 09:53:05;;;;;;;13.27;9.90;;;10.40;98.70;;;;;;5019738;28;20453;-70
2021/03/07 09:55:34;;;;;;;23.77;13.60;;;10.40;97.90;;;;;;5017925;28;20487;-71
2021/03/07 09:58:19;;;;;;;129.03;28.23;;;10.30;98.20;;;;;;5017151;28;20442;-72
2021/03/07 10:00:50;;;;;;;12.80;9.63;;;10.60;98.10;;;;;;5015453;28;20483;-71
2021/03/07 10:03:24;;;;;;;10.80;8.87;;;11.20;97.50;;;;;;5019706;28;20444;-72
2021/03/07 10:06:19;;;;;;;11.77;9.87;;;11.90;97.60;;;;;;5010653;28;20459;-71
2021/03/07 10:08:47;;;;;;;12.87;9.70;;;12.10;97.60;;;;;;5023756;28;20408;-71
2021/03/07 10:11:20;;;;;;;11.70;10.10;;;12.60;95.70;;;;;;5013222;28;20444;-71
2021/03/07 10:13:57;;;;;;;11.80;10.00;;;12.60;95.40;;;;;;5022805;28;20437;-71
2021/03/07 10:16:28;;;;;;;14.53;9.10;;;12.80;95.70;;;;;;5011885;28;20451;-70
2021/03/07 10:19:05;;;;;;;14.37;11.13;;;12.80;97.10;;;;;;5017710;28;20444;-70
2021/03/07 10:21:31;;;;;;;12.23;10.67;;;12.10;95.10;;;;;;5018357;28;20454;-70
2021/03/07 10:24:12;;;;;;;14.67;11.30;;;11.60;96.60;;;;;;5031259;28;20428;-70
2021/03/07 10:26:39;;;;;;;15.10;10.40;;;11.40;95.80;;;;;;5015895;28;20456;-69
2021/03/07 10:29:29;;;;;;;11.93;9.73;;;11.40;97.90;;;;;;5019081;28;20452;-69
2021/03/07 10:32:18;;;;;;;12.23;10.00;;;11.70;96.30;;;;;;5002445;28;20450;-69
2021/03/07 10:34:49;;;;;;;17.93;10.20;;;11.70;96.30;;;;;;5022122;28;20448;-69
2021/03/07 10:37:36;;;;;;;12.50;9.87;;;11.40;96.60;;;;;;5016698;28;20455;-69
2021/03/07 10:40:08;;;;;;;13.10;9.77;;;10.60;96.40;;;;;;5014092;28;21013;-70
2021/03/07 10:42:36;;;;;;;12.00;9.83;;;9.80;97.60;;;;;;5022479;28;20518;-70
2021/03/07 10:45:20;;;;;;;17.33;10.53;;;10.00;97.70;;;;;;5023495;28;20951;-70
2021/03/07 10:48:09;;;;;;;14.13;10.33;;;9.90;99.10;;;;;;5015552;28;20443;-70
2021/03/07 10:50:36;;;;;;;16.73;11.13;;;10.70;99.00;;;;;;5017220;28;20443;-70
2021/03/07 10:53:03;;;;;;;13.07;10.23;;;11.60;98.90;;;;;;5020450;28;20423;-70
2021/03/07 10:55:28;;;;;;;13.90;10.30;;;12.10;96.90;;;;;;5016542;28;20464;-70
2021/03/07 10:57:54;;;;;;;14.37;11.20;;;12.00;96.70;;;;;;5016405;28;20448;-71
2021/03/07 11:00:21;;;;;;;11.83;10.60;;;12.50;97.00;;;;;;5017667;28;20225;-70
2021/03/07 11:02:47;;;;;;;12.87;11.03;;;12.70;96.40;;;;;;5018069;28;20183;-70
2021/03/07 11:05:13;;;;;;;15.00;10.83;;;13.00;96.90;;;;;;5015884;28;20453;-70
2021/03/07 11:07:40;;;;;;;14.93;11.17;;;13.40;97.60;;;;;;5021035;28;20182;-70
2021/03/07 11:10:07;;;;;;;11.00;9.90;;;13.80;98.10;;;;;;5016537;28;20464;-70
2021/03/07 11:12:34;;;;;;;13.10;10.07;;;14.00;96.80;;;;;;5026240;28;20492;-70
2021/03/07 11:15:00;;;;;;;16.90;11.23;;;13.80;96.60;;;;;;5019730;28;20947;-70
2021/03/07 11:17:25;;;;;;;11.97;10.00;;;13.90;96.30;;;;;;5021619;28;20428;-70
2021/03/07 11:19:51;;;;;;;10.63;9.53;;;14.10;96.90;;;;;;5024402;28;20206;-72
2021/03/07 11:22:16;;;;;;;12.40;10.73;;;14.30;95.50;;;;;;5020464;28;20644;-71
2021/03/07 11:24:42;;;;;;;11.40;10.10;;;14.00;95.70;;;;;;5021990;28;20215;-71
2021/03/07 11:27:08;;;;;;;13.70;9.90;;;14.10;93.80;;;;;;5021065;28;20184;-70
2021/03/07 11:29:33;;;;;;;13.93;10.97;;;13.70;95.70;;;;;;5023201;28;20717;-72
2021/03/07 11:31:59;;;;;;;11.73;10.30;;;13.60;95.00;;;;;;5019993;28;20212;-70
2021/03/07 11:34:24;;;;;;;12.63;10.80;;;13.60;97.60;;;;;;5015948;28;20245;-70
2021/03/07 11:36:50;;;;;;;11.50;9.00;;;13.30;96.40;;;;;;5025140;28;20277;-72
2021/03/07 11:39:15;;;;;;;14.60;11.30;;;13.10;96.00;;;;;;5021913;28;20209;-70
2021/03/07 11:41:41;;;;;;;14.13;10.43;;;12.50;96.80;;;;;;5021544;28;20595;-70
2021/03/07 11:44:06;;;;;;;13.63;10.53;;;12.00;97.70;;;;;;5020374;28;20186;-71
2021/03/07 11:46:32;;;;;;;10.97;8.87;;;12.20;97.00;;;;;;5024924;28;20189;-70
2021/03/07 11:48:57;;;;;;;11.10;9.47;;;12.40;97.10;;;;;;5022190;28;20224;-70
2021/03/07 11:51:23;;;;;;;13.80;9.83;;;12.60;97.20;;;;;;5019313;28;20266;-70
2021/03/07 11:53:48;;;;;;;13.80;10.13;;;12.80;96.30;;;;;;5022039;28;20189;-71
2021/03/07 11:56:14;;;;;;;12.00;9.13;;;12.70;96.50;;;;;;5020356;28;20682;-71
2021/03/07 11:58:39;;;;;;;14.93;9.80;;;12.80;96.40;;;;;;5020523;28;20185;-71
2021/03/07 12:01:05;;;;;;;9.90;8.70;;;12.70;95.90;;;;;;5021893;28;20205;-70
2021/03/07 12:03:30;;;;;;;10.80;8.90;;;12.70;96.40;;;;;;5019270;28;20524;-71
2021/03/07 12:05:56;;;;;;;11.87;10.17;;;12.40;95.60;;;;;;5018326;28;20198;-70
2021/03/07 12:08:22;;;;;;;10.60;9.30;;;12.50;96.50;;;;;;5024120;28;20184;-71
2021/03/07 12:10:47;;;;;;;12.63;10.50;;;12.40;96.40;;;;;;5018697;28;20217;-71
2021/03/07 12:13:13;;;;;;;12.60;9.70;;;12.00;96.40;;;;;;5020794;28;20193;-71
2021/03/07 12:15:38;;;;;;;12.90;9.40;;;12.10;97.00;;;;;;5021462;28;20209;-71
2021/03/07 12:18:04;;;;;;;14.10;10.80;;;12.10;96.30;;;;;;5019392;28;20195;-70
2021/03/07 12:20:29;;;;;;;12.93;10.90;;;11.90;96.70;;;;;;5022509;28;20572;-69
2021/03/07 12:22:55;;;;;;;12.30;10.80;;;11.80;95.60;;;;;;5017505;28;20174;-70
2021/03/07 12:25:20;;;;;;;12.50;10.20;;;11.60;96.20;;;;;;5021764;28;20201;-71
2021/03/07 12:27:46;;;;;;;13.83;10.10;;;11.70;96.80;;;;;;5019913;28;20238;-70
2021/03/07 12:30:12;;;;;;;12.37;10.07;;;11.70;96.10;;;;;;5021808;28;20202;-71
2021/03/07 12:32:38;;;;;;;12.80;10.37;;;11.70;97.40;;;;;;5020914;28;20595;-70
2021/03/07 12:35:04;;;;;;;13.43;9.77;;;11.70;97.50;;;;;;5019068;28;20445;-71
2021/03/07 12:37:29;;;;;;;13.03;9.70;;;11.60;97.00;;;;;;5022367;28;20212;-71
2021/03/07 12:39:55;;;;;;;12.23;9.73;;;11.50;97.90;;;;;;5016000;28;20542;-70
2021/03/07 12:42:20;;;;;;;13.47;10.00;;;11.40;98.20;;;;;;5016448;28;20187;-71
2021/03/07 12:44:46;;;;;;;13.37;11.00;;;11.50;98.40;;;;;;5018601;28;20198;-71
2021/03/07 12:47:12;;;;;;;15.37;11.40;;;11.50;97.60;;;;;;5022160;28;20179;-71
2021/03/07 12:49:37;;;;;;;18.30;11.40;;;11.50;97.70;;;;;;5021193;28;20186;-70